Time;durP1;ratioP1;P1;durP2;ratioP2;P2;SDS_P1;SDS_P2;PMS_P1;PMS_P2;Temp;Humidity;BMP_temperature;BMP_pressure;BME280_temperature;BME280_humidity;BME280_pressure;Samples;Min_cycle;Max_cycle;Signal;HPM_P1;HPM_P2
2023/01/08 00:01:19;;;;;;;2.83;1.30;;;;;;;;;;5078067;28;20685;-61
2023/01/08 00:03:47;;;;;;;2.93;1.50;;;;;;;;;;5067411;28;20308;-61
2023/01/08 00:06:16;;;;;;;1.80;1.40;;;;;;;;;;5078152;28;20220;-61
2023/01/08 00:08:44;;;;;;;5.10;1.50;;;;;;;;;;5078371;28;20216;-61
2023/01/08 00:11:14;;;;;;;4.70;1.60;;;;;;;;;;5078122;28;20312;-62
2023/01/08 00:13:42;;;;;;;2.70;1.77;;;;;;;;;;5078213;28;20226;-62
2023/01/08 00:16:13;;;;;;;1.70;1.60;;;;;;;;;;5078124;28;20213;-61
2023/01/08 00:18:41;;;;;;;4.53;1.33;;;;;;;;;;5077892;28;20293;-61
2023/01/08 00:21:09;;;;;;;5.53;2.00;;;;;;;;;;5077643;28;20198;-61
2023/01/08 00:23:38;;;;;;;3.67;2.10;;;;;;;;;;5078021;28;20222;-62
2023/01/08 00:26:07;;;;;;;1.87;1.77;;;;;;;;;;5077737;28;20232;-62
2023/01/08 00:28:38;;;;;;;4.23;3.03;;;;;;;;;;5078270;28;20206;-62
2023/01/08 00:31:06;;;;;;;4.87;2.47;;;;;;;;;;5077912;28;20230;-61
2023/01/08 00:33:35;;;;;;;2.67;1.90;;;;;;;;;;5077257;28;20717;-62
2023/01/08 00:36:07;;;;;;;2.33;2.00;;;;;;;;;;5077497;28;20206;-61
2023/01/08 00:38:35;;;;;;;1.83;1.40;;;;;;;;;;5077741;28;20206;-61
2023/01/08 00:41:03;;;;;;;1.77;1.30;;;;;;;;;;5077600;28;20643;-62
2023/01/08 00:43:31;;;;;;;1.97;1.17;;;;;;;;;;5077582;28;20218;-61
2023/01/08 00:46:00;;;;;;;2.47;1.27;;;;;;;;;;5077213;28;20657;-60
2023/01/08 00:48:29;;;;;;;3.80;1.43;;;;;;;;;;5077448;28;20220;-61
2023/01/08 00:50:57;;;;;;;3.27;1.50;;;;;;;;;;5077583;28;20317;-61
2023/01/08 00:53:25;;;;;;;1.40;1.30;;;;;;;;;;5077577;28;20226;-62
2023/01/08 00:55:59;;;;;;;1.27;1.27;;;;;;;;;;5077751;28;20206;-62
2023/01/08 00:58:27;;;;;;;2.47;1.60;;;;;;;;;;5077391;28;20550;-60
2023/01/08 01:00:55;;;;;;;1.23;1.13;;;;;;;;;;5077364;28;20213;-62
2023/01/08 01:03:25;;;;;;;1.70;1.37;;;;;;;;;;5073718;28;20248;-61
2023/01/08 01:05:59;;;;;;;6.73;1.60;;;;;;;;;;5076825;28;20256;-61
2023/01/08 01:08:28;;;;;;;3.43;1.10;;;;;;;;;;5077256;28;20664;-62
2023/01/08 01:10:56;;;;;;;1.00;1.00;;;;;;;;;;5077020;28;20248;-60
2023/01/08 01:13:24;;;;;;;2.07;1.20;;;;;;;;;;5077073;28;20233;-61
2023/01/08 01:15:58;;;;;;;1.57;1.43;;;;;;;;;;5077067;28;20228;-60
2023/01/08 01:18:28;;;;;;;1.17;1.07;;;;;;;;;;5077011;28;20212;-60
2023/01/08 01:20:56;;;;;;;1.83;1.30;;;;;;;;;;5074479;28;20226;-62
2023/01/08 01:23:24;;;;;;;3.30;1.33;;;;;;;;;;5077129;28;20588;-62
2023/01/08 01:25:53;;;;;;;1.40;1.20;;;;;;;;;;5076950;28;20640;-62
2023/01/08 01:28:21;;;;;;;1.63;1.13;;;;;;;;;;5077353;28;20259;-62
2023/01/08 01:30:53;;;;;;;3.67;1.57;;;;;;;;;;5077039;28;20767;-61
2023/01/08 01:33:21;;;;;;;3.53;1.50;;;;;;;;;;5076770;28;20605;-62
2023/01/08 01:35:58;;;;;;;2.17;1.60;;;;;;;;;;5077261;28;20289;-61
2023/01/08 01:38:26;;;;;;;1.93;1.30;;;;;;;;;;5076990;28;20772;-61
2023/01/08 01:40:54;;;;;;;4.77;1.60;;;;;;;;;;5077057;28;20221;-61
2023/01/08 01:43:36;;;;;;;1.97;1.20;;;;;;;;;;5076887;28;20318;-61
2023/01/08 01:46:04;;;;;;;1.40;1.30;;;;;;;;;;5077205;28;20213;-61
2023/01/08 01:48:33;;;;;;;4.33;1.90;;;;;;;;;;5076635;28;20692;-62
2023/01/08 01:51:02;;;;;;;3.20;1.63;;;;;;;;;;5077125;28;20261;-61
2023/01/08 01:53:32;;;;;;;2.87;1.70;;;;;;;;;;5077084;28;20233;-62
2023/01/08 01:56:01;;;;;;;3.87;1.37;;;;;;;;;;5076871;28;20245;-62
2023/01/08 01:58:30;;;;;;;2.57;1.33;;;;;;;;;;5078788;28;20214;-61
2023/01/08 02:00:58;;;;;;;2.70;1.67;;;;;;;;;;5080409;28;20564;-62
2023/01/08 02:03:29;;;;;;;4.13;1.67;;;;;;;;;;5074889;28;20260;-62
2023/01/08 02:05:59;;;;;;;2.97;1.60;;;;;;;;;;5075009;28;20214;-62
2023/01/08 02:08:32;;;;;;;7.40;1.80;;;;;;;;;;5080596;28;20246;-62
2023/01/08 02:11:05;;;;;;;7.57;2.60;;;;;;;;;;5080146;28;20333;-61
2023/01/08 02:13:36;;;;;;;4.10;1.73;;;;;;;;;;5080220;28;20222;-61
2023/01/08 02:16:09;;;;;;;3.67;1.70;;;;;;;;;;5080478;28;20221;-61
2023/01/08 02:18:38;;;;;;;2.37;1.80;;;;;;;;;;5079956;28;20575;-61
2023/01/08 02:21:09;;;;;;;2.03;1.40;;;;;;;;;;5080193;28;20378;-61
2023/01/08 02:23:43;;;;;;;1.30;1.20;;;;;;;;;;5080059;28;20222;-61
2023/01/08 02:26:14;;;;;;;2.37;1.40;;;;;;;;;;5080109;28;20222;-62
2023/01/08 02:28:45;;;;;;;2.70;1.57;;;;;;;;;;5080195;28;20206;-61
2023/01/08 02:31:13;;;;;;;4.23;1.80;;;;;;;;;;5079876;28;20244;-61
2023/01/08 02:33:41;;;;;;;4.27;2.07;;;;;;;;;;5079465;28;20273;-61
2023/01/08 02:36:21;;;;;;;2.20;1.37;;;;;;;;;;5079997;28;20214;-61
2023/01/08 02:38:53;;;;;;;1.97;1.63;;;;;;;;;;5080028;28;20234;-61
2023/01/08 02:41:25;;;;;;;4.13;1.70;;;;;;;;;;5080009;28;20234;-61
2023/01/08 02:43:54;;;;;;;1.43;1.33;;;;;;;;;;5066982;28;20264;-61
2023/01/08 02:46:24;;;;;;;4.23;1.63;;;;;;;;;;5079805;28;20197;-61
2023/01/08 02:48:54;;;;;;;6.20;1.80;;;;;;;;;;5079334;28;20634;-62
2023/01/08 02:51:25;;;;;;;4.17;1.60;;;;;;;;;;5079289;28;20629;-61
2023/01/08 02:53:55;;;;;;;2.90;1.97;;;;;;;;;;5079464;28;20276;-61
2023/01/08 02:56:26;;;;;;;1.93;1.67;;;;;;;;;;5079647;28;20210;-62
2023/01/08 02:58:56;;;;;;;5.30;2.03;;;;;;;;;;5079428;28;20642;-61
2023/01/08 03:01:26;;;;;;;6.90;2.37;;;;;;;;;;5079476;28;20236;-61
2023/01/08 03:03:56;;;;;;;4.93;1.97;;;;;;;;;;5078988;28;20226;-61
2023/01/08 03:06:25;;;;;;;3.53;1.83;;;;;;;;;;5079317;28;20206;-61
2023/01/08 03:08:53;;;;;;;4.57;1.93;;;;;;;;;;5079317;28;20305;-61
2023/01/08 03:11:22;;;;;;;4.67;1.90;;;;;;;;;;5079232;28;20253;-61
2023/01/08 03:13:54;;;;;;;3.60;1.50;;;;;;;;;;5079176;28;20271;-61
2023/01/08 03:16:24;;;;;;;4.67;1.70;;;;;;;;;;5079289;28;20210;-61
2023/01/08 03:18:55;;;;;;;3.60;1.67;;;;;;;;;;5078922;28;20293;-61
2023/01/08 03:21:23;;;;;;;3.43;1.87;;;;;;;;;;5079067;28;20202;-61
2023/01/08 03:23:51;;;;;;;5.07;2.00;;;;;;;;;;5078964;28;20230;-61
2023/01/08 03:26:22;;;;;;;2.10;1.50;;;;;;;;;;5079148;28;20202;-61
2023/01/08 03:28:52;;;;;;;2.17;1.47;;;;;;;;;;5078976;28;20213;-61
2023/01/08 03:31:23;;;;;;;4.27;2.10;;;;;;;;;;5078883;28;20218;-61
2023/01/08 03:33:51;;;;;;;3.67;1.90;;;;;;;;;;5078303;28;20277;-61
2023/01/08 03:36:22;;;;;;;2.73;1.70;;;;;;;;;;5078760;28;20206;-61
2023/01/08 03:38:52;;;;;;;3.30;1.70;;;;;;;;;;5078543;28;20665;-61
2023/01/08 03:41:22;;;;;;;4.80;1.60;;;;;;;;;;5078509;28;20677;-61
2023/01/08 03:43:50;;;;;;;3.83;1.80;;;;;;;;;;5078420;28;20257;-61
2023/01/08 03:46:20;;;;;;;4.17;1.73;;;;;;;;;;5072670;28;20213;-61
2023/01/08 03:48:50;;;;;;;3.80;1.80;;;;;;;;;;5078167;28;20214;-60
2023/01/08 03:51:18;;;;;;;2.80;2.00;;;;;;;;;;5078311;28;20210;-61
2023/01/08 03:53:47;;;;;;;4.07;2.10;;;;;;;;;;5078271;28;20309;-61
2023/01/08 03:56:15;;;;;;;4.73;2.43;;;;;;;;;;5078119;28;20252;-61
2023/01/08 03:58:43;;;;;;;3.00;1.40;;;;;;;;;;5078279;28;20233;-61
2023/01/08 04:01:11;;;;;;;2.07;1.77;;;;;;;;;;5078069;28;20217;-61
2023/01/08 04:03:39;;;;;;;4.57;2.17;;;;;;;;;;5077042;28;20284;-61
2023/01/08 04:06:09;;;;;;;3.00;1.80;;;;;;;;;;5068741;28;20206;-61
2023/01/08 04:08:37;;;;;;;1.67;1.57;;;;;;;;;;5078283;28;20225;-61
2023/01/08 04:11:05;;;;;;;1.90;1.50;;;;;;;;;;5078313;28;20210;-61
2023/01/08 04:13:33;;;;;;;3.13;1.83;;;;;;;;;;5077829;28;20695;-61
2023/01/08 04:16:01;;;;;;;4.63;1.77;;;;;;;;;;5078189;28;20214;-61
2023/01/08 04:18:29;;;;;;;3.40;1.33;;;;;;;;;;5077867;28;20298;-61
2023/01/08 04:20:57;;;;;;;3.37;1.53;;;;;;;;;;5077274;28;20210;-61
2023/01/08 04:23:26;;;;;;;2.77;1.47;;;;;;;;;;5078050;28;20294;-61
2023/01/08 04:25:54;;;;;;;2.50;1.47;;;;;;;;;;5077867;28;20206;-61
2023/01/08 04:28:23;;;;;;;2.70;1.50;;;;;;;;;;5078047;28;20217;-61
2023/01/08 04:30:51;;;;;;;3.00;1.53;;;;;;;;;;5077763;28;20296;-61
2023/01/08 04:33:19;;;;;;;2.97;1.97;;;;;;;;;;5077345;28;20249;-61
2023/01/08 04:35:47;;;;;;;1.57;1.43;;;;;;;;;;5077665;28;20642;-61
2023/01/08 04:38:15;;;;;;;2.93;1.60;;;;;;;;;;5077965;28;20234;-61
2023/01/08 04:40:44;;;;;;;1.63;1.53;;;;;;;;;;5077674;28;20245;-61
2023/01/08 04:43:12;;;;;;;4.00;1.40;;;;;;;;;;5077767;28;20226;-61
2023/01/08 04:45:41;;;;;;;2.40;1.80;;;;;;;;;;5077725;28;20202;-61
2023/01/08 04:48:09;;;;;;;3.83;1.67;;;;;;;;;;5077633;28;20216;-61
2023/01/08 04:50:37;;;;;;;2.73;1.63;;;;;;;;;;5077459;28;20640;-61
2023/01/08 04:53:05;;;;;;;4.57;1.67;;;;;;;;;;5077619;28;20261;-60
2023/01/08 04:55:33;;;;;;;4.67;1.73;;;;;;;;;;5077824;28;20212;-61
2023/01/08 04:58:02;;;;;;;3.30;1.80;;;;;;;;;;5077419;28;20241;-61
2023/01/08 05:00:30;;;;;;;2.67;1.60;;;;;;;;;;5077784;28;20208;-61
2023/01/08 05:02:59;;;;;;;1.80;1.60;;;;;;;;;;5076998;28;20808;-61
2023/01/08 05:05:27;;;;;;;3.43;1.83;;;;;;;;;;5077571;28;20297;-61
2023/01/08 05:07:55;;;;;;;4.97;1.93;;;;;;;;;;5077613;28;20206;-61
2023/01/08 05:10:23;;;;;;;1.87;1.33;;;;;;;;;;5077708;28;20218;-61
2023/01/08 05:12:51;;;;;;;3.03;1.80;;;;;;;;;;5077363;28;20351;-61
2023/01/08 05:15:20;;;;;;;8.70;2.27;;;;;;;;;;5077634;28;20214;-60
2023/01/08 05:17:48;;;;;;;4.80;2.10;;;;;;;;;;5077242;28;20221;-61
2023/01/08 05:20:16;;;;;;;2.20;1.80;;;;;;;;;;5077376;28;20234;-61
2023/01/08 05:22:48;;;;;;;2.17;1.53;;;;;;;;;;5077121;28;20756;-61
2023/01/08 05:25:16;;;;;;;2.17;1.60;;;;;;;;;;5077664;28;20208;-61
2023/01/08 05:27:44;;;;;;;3.20;1.87;;;;;;;;;;5077203;28;20252;-61
2023/01/08 05:30:12;;;;;;;4.00;1.83;;;;;;;;;;5077150;28;20309;-61
2023/01/08 05:32:42;;;;;;;4.80;2.10;;;;;;;;;;5077440;28;20317;-61
2023/01/08 05:35:10;;;;;;;2.43;1.50;;;;;;;;;;5080656;28;20362;-61
2023/01/08 05:37:38;;;;;;;2.30;1.83;;;;;;;;;;5080898;28;20304;-61
2023/01/08 05:40:06;;;;;;;3.37;1.93;;;;;;;;;;5081008;28;20210;-61
2023/01/08 05:42:34;;;;;;;4.27;2.07;;;;;;;;;;5080704;28;20562;-61
2023/01/08 05:45:02;;;;;;;4.33;1.80;;;;;;;;;;5080882;28;20201;-61
2023/01/08 05:47:31;;;;;;;3.10;1.90;;;;;;;;;;5080606;28;20256;-61
2023/01/08 05:50:00;;;;;;;1.97;1.60;;;;;;;;;;5080783;28;20240;-61
2023/01/08 05:52:29;;;;;;;3.70;1.87;;;;;;;;;;5080487;28;20206;-61
2023/01/08 05:54:58;;;;;;;2.47;1.63;;;;;;;;;;5080603;28;20285;-60
2023/01/08 05:57:27;;;;;;;1.80;1.40;;;;;;;;;;5080565;28;20206;-61
2023/01/08 05:59:55;;;;;;;2.07;1.50;;;;;;;;;;5080505;28;20198;-61
2023/01/08 06:02:23;;;;;;;3.27;1.73;;;;;;;;;;5080319;28;20230;-61
2023/01/08 06:04:51;;;;;;;3.83;1.73;;;;;;;;;;5079740;28;20210;-60
2023/01/08 06:07:20;;;;;;;2.37;1.57;;;;;;;;;;5075880;28;20240;-61
2023/01/08 06:09:48;;;;;;;3.87;2.00;;;;;;;;;;5080078;28;20238;-61
2023/01/08 06:12:17;;;;;;;3.47;1.80;;;;;;;;;;5079687;28;20194;-60
2023/01/08 06:14:45;;;;;;;3.13;2.00;;;;;;;;;;5079786;28;20245;-61
2023/01/08 06:17:13;;;;;;;3.17;1.90;;;;;;;;;;5079793;28;20233;-61
2023/01/08 06:19:41;;;;;;;2.73;1.60;;;;;;;;;;5078893;28;20682;-61
2023/01/08 06:22:09;;;;;;;3.27;1.57;;;;;;;;;;5079275;28;20202;-61
2023/01/08 06:24:39;;;;;;;2.60;1.90;;;;;;;;;;5079073;28;20579;-61
2023/01/08 06:27:07;;;;;;;3.83;1.50;;;;;;;;;;5076576;28;20221;-61
2023/01/08 06:29:35;;;;;;;3.47;1.70;;;;;;;;;;5079309;28;20194;-60
2023/01/08 06:32:04;;;;;;;2.33;1.87;;;;;;;;;;5079055;28;20195;-61
2023/01/08 06:34:32;;;;;;;3.17;1.77;;;;;;;;;;5078191;28;20300;-61
2023/01/08 06:37:00;;;;;;;2.30;1.80;;;;;;;;;;5079014;28;20207;-61
2023/01/08 06:39:28;;;;;;;6.60;2.03;;;;;;;;;;5077045;28;20217;-61
2023/01/08 06:41:57;;;;;;;4.50;1.80;;;;;;;;;;5078515;28;20284;-61
2023/01/08 06:44:25;;;;;;;3.63;2.17;;;;;;;;;;5077644;28;20210;-61
2023/01/08 06:46:53;;;;;;;4.43;1.87;;;;;;;;;;5078290;28;20575;-61
2023/01/08 06:49:22;;;;;;;4.30;2.00;;;;;;;;;;5078721;28;20198;-61
2023/01/08 06:51:50;;;;;;;3.70;1.57;;;;;;;;;;5078478;28;20210;-59
2023/01/08 06:54:18;;;;;;;3.03;1.93;;;;;;;;;;5079287;28;20222;-60
2023/01/08 06:56:48;;;;;;;3.83;2.00;;;;;;;;;;5079171;28;20603;-59
2023/01/08 06:59:22;;;;;;;4.40;2.00;;;;;;;;;;5079108;28;20209;-60
2023/01/08 07:01:50;;;;;;;1.93;1.67;;;;;;;;;;5078571;28;20310;-61
2023/01/08 07:04:19;;;;;;;6.13;2.20;;;;;;;;;;5075923;28;20271;-60
2023/01/08 07:06:47;;;;;;;1.97;1.77;;;;;;;;;;5078073;28;20229;-59
2023/01/08 07:09:15;;;;;;;3.73;2.10;;;;;;;;;;5078636;28;20202;-61
2023/01/08 07:11:43;;;;;;;5.57;2.00;;;;;;;;;;5078410;28;20198;-60
2023/01/08 07:14:11;;;;;;;3.07;1.90;;;;;;;;;;5078437;28;20252;-61
2023/01/08 07:16:41;;;;;;;2.03;1.83;;;;;;;;;;5079220;28;20199;-61
2023/01/08 07:19:09;;;;;;;3.50;2.10;;;;;;;;;;5078490;28;20663;-60
2023/01/08 07:21:37;;;;;;;3.90;2.13;;;;;;;;;;5078827;28;20260;-61
2023/01/08 07:24:06;;;;;;;4.83;2.17;;;;;;;;;;5078585;28;20218;-60
2023/01/08 07:26:34;;;;;;;3.87;2.00;;;;;;;;;;5078952;28;20199;-61
2023/01/08 07:29:02;;;;;;;2.63;2.00;;;;;;;;;;5078307;28;20541;-60
2023/01/08 07:31:30;;;;;;;3.00;2.10;;;;;;;;;;5078548;28;20232;-61
2023/01/08 07:34:00;;;;;;;2.67;1.57;;;;;;;;;;5077614;28;20237;-60
2023/01/08 07:36:28;;;;;;;2.73;2.10;;;;;;;;;;5078360;28;20289;-60
2023/01/08 07:38:56;;;;;;;6.43;1.77;;;;;;;;;;5078381;28;20198;-60
2023/01/08 07:41:24;;;;;;;1.50;1.40;;;;;;;;;;5078393;28;20198;-59
2023/01/08 07:43:52;;;;;;;4.83;2.13;;;;;;;;;;5078098;28;20222;-60
2023/01/08 07:46:21;;;;;;;1.93;1.70;;;;;;;;;;5078223;28;20230;-60
2023/01/08 07:48:49;;;;;;;2.53;1.70;;;;;;;;;;5077980;28;20208;-61
2023/01/08 07:51:19;;;;;;;3.60;2.00;;;;;;;;;;5078360;28;20233;-60
2023/01/08 07:53:47;;;;;;;4.43;1.90;;;;;;;;;;5077995;28;20227;-60
2023/01/08 07:56:15;;;;;;;3.47;2.10;;;;;;;;;;5074244;28;20244;-61
2023/01/08 07:58:43;;;;;;;3.33;1.87;;;;;;;;;;5078121;28;20199;-60
2023/01/08 08:01:11;;;;;;;5.57;3.33;;;;;;;;;;5078084;28;20230;-60
2023/01/08 08:03:39;;;;;;;2.20;1.80;;;;;;;;;;5077571;28;20225;-59
2023/01/08 08:06:07;;;;;;;3.90;1.80;;;;;;;;;;5078120;28;20210;-58
2023/01/08 08:08:37;;;;;;;3.17;2.10;;;;;;;;;;5066720;28;20213;-59
2023/01/08 08:11:07;;;;;;;3.27;1.90;;;;;;;;;;5077545;28;20649;-59
2023/01/08 08:13:35;;;;;;;2.60;1.70;;;;;;;;;;5077599;28;20252;-59
2023/01/08 08:16:04;;;;;;;3.83;1.73;;;;;;;;;;5078024;28;20204;-59
2023/01/08 08:18:32;;;;;;;3.70;1.60;;;;;;;;;;5077881;28;20241;-59
2023/01/08 08:21:00;;;;;;;4.00;1.83;;;;;;;;;;5078036;28;20237;-59
2023/01/08 08:23:28;;;;;;;3.00;2.00;;;;;;;;;;5077772;28;20591;-59
2023/01/08 08:25:57;;;;;;;2.40;1.90;;;;;;;;;;5077776;28;20230;-59
2023/01/08 08:28:25;;;;;;;2.40;1.97;;;;;;;;;;5078001;28;20284;-58
2023/01/08 08:30:53;;;;;;;3.50;1.83;;;;;;;;;;5078103;28;20206;-59
2023/01/08 08:33:21;;;;;;;3.43;1.80;;;;;;;;;;5077449;28;20325;-58
2023/01/08 08:35:50;;;;;;;3.43;2.00;;;;;;;;;;5077841;28;20228;-57
2023/01/08 08:38:18;;;;;;;3.70;1.90;;;;;;;;;;5077875;28;20245;-59
2023/01/08 08:40:46;;;;;;;4.17;2.00;;;;;;;;;;5077949;28;20205;-58
2023/01/08 08:43:15;;;;;;;3.10;1.90;;;;;;;;;;5074911;28;20257;-60
2023/01/08 08:45:43;;;;;;;3.40;1.97;;;;;;;;;;5074866;28;20194;-58
2023/01/08 08:48:11;;;;;;;2.10;1.87;;;;;;;;;;5077135;28;20553;-60
2023/01/08 08:50:39;;;;;;;4.57;2.37;;;;;;;;;;5083235;28;20229;-58
2023/01/08 08:53:07;;;;;;;5.23;2.47;;;;;;;;;;5076694;28;20272;-59
2023/01/08 08:55:35;;;;;;;4.20;2.10;;;;;;;;;;5074742;28;20224;-59
2023/01/08 08:58:05;;;;;;;3.50;1.93;;;;;;;;;;5074422;28;20202;-59
2023/01/08 09:00:34;;;;;;;6.10;2.43;;;;;;;;;;5076882;28;20207;-58
2023/01/08 09:03:02;;;;;;;4.97;2.30;;;;;;;;;;5076653;28;20712;-59
2023/01/08 09:05:31;;;;;;;6.23;2.10;;;;;;;;;;5074334;28;20198;-59
2023/01/08 09:07:59;;;;;;;4.40;2.10;;;;;;;;;;5079784;28;20230;-58
2023/01/08 09:10:27;;;;;;;4.50;2.60;;;;;;;;;;5081298;28;20229;-59
2023/01/08 09:12:55;;;;;;;5.40;2.33;;;;;;;;;;5080478;28;20228;-58
2023/01/08 09:15:23;;;;;;;4.20;2.50;;;;;;;;;;5080885;28;20797;-60
2023/01/08 09:17:56;;;;;;;2.57;2.30;;;;;;;;;;5080181;28;20665;-60
2023/01/08 09:20:25;;;;;;;4.73;2.03;;;;;;;;;;5080310;28;20243;-58
2023/01/08 09:22:56;;;;;;;3.57;2.17;;;;;;;;;;5081421;28;20224;-59
2023/01/08 09:25:25;;;;;;;2.67;2.40;;;;;;;;;;5077830;28;20217;-59
2023/01/08 09:27:58;;;;;;;3.13;2.37;;;;;;;;;;5081531;28;20673;-58
2023/01/08 09:30:26;;;;;;;2.10;1.97;;;;;;;;;;5077203;28;20202;-59
2023/01/08 09:32:57;;;;;;;4.60;2.33;;;;;;;;;;5079770;28;20721;-58
2023/01/08 09:35:29;;;;;;;5.93;2.63;;;;;;;;;;5080289;28;20304;-59
2023/01/08 09:37:57;;;;;;;2.73;1.87;;;;;;;;;;5080693;28;20605;-60
2023/01/08 09:40:26;;;;;;;3.10;2.17;;;;;;;;;;5080480;28;20230;-59
2023/01/08 09:42:56;;;;;;;4.50;2.20;;;;;;;;;;5080456;28;20284;-60
2023/01/08 09:45:27;;;;;;;5.20;2.13;;;;;;;;;;5080402;28;20272;-60
2023/01/08 09:47:57;;;;;;;2.70;2.20;;;;;;;;;;5080133;28;20203;-59
2023/01/08 09:50:27;;;;;;;4.43;1.90;;;;;;;;;;5080336;28;20199;-58
2023/01/08 09:52:55;;;;;;;4.23;2.10;;;;;;;;;;5080467;28;20222;-58
2023/01/08 09:55:23;;;;;;;3.57;2.00;;;;;;;;;;5080634;28;20233;-59
2023/01/08 09:57:51;;;;;;;2.90;2.07;;;;;;;;;;5080251;28;20256;-59
2023/01/08 10:00:21;;;;;;;4.27;2.23;;;;;;;;;;5080471;28;20297;-59
2023/01/08 10:02:49;;;;;;;4.47;2.50;;;;;;;;;;5075149;28;20569;-60
2023/01/08 10:05:18;;;;;;;2.33;2.10;;;;;;;;;;5079420;28;20198;-58
2023/01/08 10:07:48;;;;;;;3.07;1.93;;;;;;;;;;5078626;28;20557;-60
2023/01/08 10:10:18;;;;;;;5.07;1.73;;;;;;;;;;5077274;28;20241;-58
2023/01/08 10:12:47;;;;;;;3.53;1.90;;;;;;;;;;5079643;28;20214;-60
2023/01/08 10:15:16;;;;;;;1.53;1.43;;;;;;;;;;5079909;28;20285;-60
2023/01/08 10:17:46;;;;;;;3.73;1.90;;;;;;;;;;5079968;28;20238;-60
2023/01/08 10:20:15;;;;;;;2.77;2.20;;;;;;;;;;5079572;28;20206;-59
2023/01/08 10:22:43;;;;;;;2.20;2.10;;;;;;;;;;5080069;28;20226;-58
2023/01/08 10:25:15;;;;;;;2.00;1.73;;;;;;;;;;5080092;28;20252;-60
2023/01/08 10:27:47;;;;;;;3.37;1.77;;;;;;;;;;5079994;28;20202;-60
2023/01/08 10:30:16;;;;;;;1.80;1.70;;;;;;;;;;5079934;28;20617;-60
2023/01/08 10:32:48;;;;;;;2.80;1.63;;;;;;;;;;5079678;28;20237;-58
2023/01/08 10:35:17;;;;;;;2.87;1.77;;;;;;;;;;5059917;28;20223;-60
2023/01/08 10:37:46;;;;;;;5.23;1.97;;;;;;;;;;5059602;28;20241;-58
2023/01/08 10:40:22;;;;;;;3.13;1.77;;;;;;;;;;5059668;28;20631;-59
2023/01/08 10:42:51;;;;;;;2.37;1.50;;;;;;;;;;5059463;28;20224;-60
2023/01/08 10:45:20;;;;;;;2.70;2.27;;;;;;;;;;5057257;28;20233;-61
2023/01/08 10:47:50;;;;;;;4.90;2.20;;;;;;;;;;5048547;28;20241;-60
2023/01/08 10:50:20;;;;;;;1.73;1.57;;;;;;;;;;5050301;28;20290;-60
2023/01/08 10:52:52;;;;;;;2.43;1.73;;;;;;;;;;5058752;28;20741;-61
2023/01/08 10:55:25;;;;;;;2.07;1.97;;;;;;;;;;5058744;28;20266;-60
2023/01/08 10:57:57;;;;;;;4.07;2.30;;;;;;;;;;5059061;28;20583;-61
2023/01/08 11:00:26;;;;;;;3.40;1.60;;;;;;;;;;5058941;28;20572;-61
2023/01/08 11:02:56;;;;;;;2.23;1.97;;;;;;;;;;5058753;28;20262;-61
2023/01/08 11:05:34;;;;;;;2.13;1.83;;;;;;;;;;5058878;28;20209;-61
2023/01/08 11:08:04;;;;;;;3.87;1.50;;;;;;;;;;5058731;28;20272;-60
2023/01/08 11:10:34;;;;;;;9.63;1.90;;;;;;;;;;5058641;28;20685;-61
2023/01/08 11:13:04;;;;;;;4.87;2.00;;;;;;;;;;5058599;28;20226;-61
2023/01/08 11:15:34;;;;;;;5.57;2.17;;;;;;;;;;5058700;28;20269;-60
2023/01/08 11:18:06;;;;;;;2.37;1.93;;;;;;;;;;5058296;28;20694;-60
2023/01/08 11:20:34;;;;;;;2.03;1.70;;;;;;;;;;5058447;28;20215;-60
2023/01/08 11:23:06;;;;;;;2.13;1.93;;;;;;;;;;5058511;28;20290;-60
2023/01/08 11:25:36;;;;;;;3.43;2.20;;;;;;;;;;5058704;28;20211;-60
2023/01/08 11:28:04;;;;;;;3.90;2.20;;;;;;;;;;5058206;28;20213;-59
2023/01/08 11:30:34;;;;;;;2.77;2.20;;;;;;;;;;5058560;28;20289;-60
2023/01/08 11:33:04;;;;;;;4.03;2.20;;;;;;;;;;5059893;28;20234;-60
2023/01/08 11:35:36;;;;;;;4.43;2.50;;;;;;;;;;5072975;28;20207;-60
2023/01/08 11:38:05;;;;;;;3.10;2.17;;;;;;;;;;5078127;28;20217;-60
2023/01/08 11:40:40;;;;;;;3.93;2.23;;;;;;;;;;5077992;28;20206;-59
2023/01/08 11:43:21;;;;;;;3.00;2.00;;;;;;;;;;5077863;28;20275;-59
2023/01/08 11:45:53;;;;;;;2.43;2.00;;;;;;;;;;5071351;28;20205;-58
2023/01/08 11:48:28;;;;;;;2.10;1.70;;;;;;;;;;5075699;28;20201;-59
2023/01/08 11:51:02;;;;;;;3.43;2.07;;;;;;;;;;5077698;28;20222;-59
2023/01/08 11:53:35;;;;;;;4.17;1.87;;;;;;;;;;5077485;28;20226;-59
2023/01/08 11:56:10;;;;;;;2.03;1.83;;;;;;;;;;5069392;28;20229;-58
2023/01/08 11:58:47;;;;;;;3.77;2.10;;;;;;;;;;5078090;28;20211;-59
2023/01/08 12:01:27;;;;;;;3.83;2.30;;;;;;;;;;5077866;28;20213;-59
2023/01/08 12:04:05;;;;;;;5.60;2.00;;;;;;;;;;5077788;28;20313;-58
2023/01/08 12:06:38;;;;;;;4.33;2.37;;;;;;;;;;5077992;28;20202;-59
2023/01/08 12:09:13;;;;;;;4.63;2.13;;;;;;;;;;5078314;28;20205;-58
2023/01/08 12:11:47;;;;;;;3.07;1.90;;;;;;;;;;5078003;28;20245;-59
2023/01/08 12:14:24;;;;;;;3.20;2.00;;;;;;;;;;5078051;28;20313;-59
2023/01/08 12:17:07;;;;;;;3.37;1.87;;;;;;;;;;5077942;28;20236;-60
2023/01/08 12:19:42;;;;;;;4.67;2.40;;;;;;;;;;5077460;28;20217;-60
2023/01/08 12:22:19;;;;;;;3.97;2.07;;;;;;;;;;5077661;28;20206;-59
2023/01/08 12:24:55;;;;;;;4.00;2.10;;;;;;;;;;5077864;28;20216;-60
2023/01/08 12:27:32;;;;;;;5.73;2.13;;;;;;;;;;5078045;28;20226;-59
2023/01/08 12:30:26;;;;;;;2.80;2.50;;;;;;;;;;5071852;28;20228;-60
2023/01/08 12:32:56;;;;;;;2.43;2.20;;;;;;;;;;5079630;28;20257;-61
2023/01/08 12:35:26;;;;;;;3.27;2.30;;;;;;;;;;5072937;28;20280;-58
2023/01/08 12:37:57;;;;;;;3.93;2.10;;;;;;;;;;5075688;28;20308;-59
2023/01/08 12:40:28;;;;;;;2.40;2.20;;;;;;;;;;5077017;28;20657;-59
2023/01/08 12:42:58;;;;;;;3.67;2.07;;;;;;;;;;5077233;28;20265;-59
2023/01/08 12:45:30;;;;;;;2.13;1.93;;;;;;;;;;5070913;28;20212;-60
2023/01/08 12:48:00;;;;;;;3.83;2.10;;;;;;;;;;5077259;28;20661;-60
2023/01/08 12:50:38;;;;;;;4.47;2.20;;;;;;;;;;5077699;28;20293;-59
2023/01/08 12:53:09;;;;;;;4.07;1.87;;;;;;;;;;5077426;28;20346;-59
2023/01/08 12:55:42;;;;;;;4.40;2.07;;;;;;;;;;5077856;28;20210;-60
2023/01/08 12:58:17;;;;;;;2.73;1.90;;;;;;;;;;5077732;28;20221;-59
2023/01/08 13:00:52;;;;;;;3.67;2.23;;;;;;;;;;5077461;28;20237;-58
2023/01/08 13:03:22;;;;;;;2.70;1.97;;;;;;;;;;5076942;28;20221;-59
2023/01/08 13:05:50;;;;;;;3.23;1.90;;;;;;;;;;5077215;28;20206;-59
2023/01/08 13:08:33;;;;;;;2.03;1.73;;;;;;;;;;5077187;28;20194;-58
2023/01/08 13:11:01;;;;;;;5.13;2.47;;;;;;;;;;5073338;28;20307;-59
2023/01/08 13:13:31;;;;;;;4.07;2.03;;;;;;;;;;5075540;28;20218;-58
2023/01/08 13:16:17;;;;;;;2.30;2.10;;;;;;;;;;5075194;28;20314;-58
2023/01/08 13:18:51;;;;;;;4.30;2.27;;;;;;;;;;5075612;28;20225;-58
2023/01/08 13:21:27;;;;;;;3.00;1.80;;;;;;;;;;5075377;28;20259;-59
2023/01/08 13:23:59;;;;;;;2.57;2.27;;;;;;;;;;5066567;28;20260;-58
2023/01/08 13:26:32;;;;;;;3.80;2.47;;;;;;;;;;5058759;28;20636;-59
2023/01/08 13:29:08;;;;;;;2.40;1.70;;;;;;;;;;5059581;28;20238;-60
2023/01/08 13:31:40;;;;;;;5.70;2.00;;;;;;;;;;5059941;28;20238;-59
2023/01/08 13:34:36;;;;;;;2.17;1.97;;;;;;;;;;5059152;28;20245;-59
2023/01/08 13:37:04;;;;;;;5.17;2.23;;;;;;;;;;5077115;28;20224;-58
2023/01/08 13:39:36;;;;;;;4.33;2.40;;;;;;;;;;5076925;28;20241;-58
2023/01/08 13:42:17;;;;;;;4.13;2.40;;;;;;;;;;5076596;28;20229;-59
2023/01/08 13:44:49;;;;;;;3.67;2.00;;;;;;;;;;5076734;28;20206;-59
2023/01/08 13:47:19;;;;;;;4.43;2.70;;;;;;;;;;5076641;28;20205;-59
2023/01/08 13:49:50;;;;;;;4.23;2.20;;;;;;;;;;5076909;28;20210;-60
2023/01/08 13:52:30;;;;;;;4.27;2.00;;;;;;;;;;5077037;28;20202;-60
2023/01/08 13:54:58;;;;;;;3.00;2.33;;;;;;;;;;5079216;28;20214;-59
2023/01/08 13:57:27;;;;;;;4.43;2.40;;;;;;;;;;5080460;28;20568;-59
2023/01/08 13:59:59;;;;;;;2.47;1.87;;;;;;;;;;5080431;28;20244;-60
2023/01/08 14:02:28;;;;;;;3.33;2.40;;;;;;;;;;5080425;28;20206;-58
2023/01/08 14:04:57;;;;;;;4.57;2.27;;;;;;;;;;5080264;28;20209;-59
2023/01/08 14:07:25;;;;;;;4.03;2.20;;;;;;;;;;5080551;28;20213;-59
2023/01/08 14:09:53;;;;;;;5.40;2.47;;;;;;;;;;5080244;28;20636;-60
2023/01/08 14:12:22;;;;;;;4.43;2.30;;;;;;;;;;5080181;28;20206;-59
2023/01/08 14:14:51;;;;;;;4.90;2.10;;;;;;;;;;5080198;28;20665;-58
2023/01/08 14:17:23;;;;;;;4.20;2.67;;;;;;;;;;5080127;28;20285;-60
2023/01/08 14:19:51;;;;;;;3.50;2.13;;;;;;;;;;5080208;28;20237;-59
2023/01/08 14:22:20;;;;;;;5.83;2.40;;;;;;;;;;5077672;28;20226;-59
2023/01/08 14:24:51;;;;;;;3.13;2.03;;;;;;;;;;5078113;28;20206;-60
2023/01/08 14:27:24;;;;;;;3.57;2.13;;;;;;;;;;5080266;28;20202;-60
2023/01/08 14:29:52;;;;;;;4.87;2.27;;;;;;;;;;5080346;28;20720;-60
2023/01/08 14:32:22;;;;;;;5.43;2.60;;;;;;;;;;5079689;28;20241;-60
2023/01/08 14:34:50;;;;;;;4.50;2.33;;;;;;;;;;5079625;28;20238;-60
2023/01/08 14:37:19;;;;;;;4.17;1.83;;;;;;;;;;5079814;28;20317;-60
2023/01/08 14:39:50;;;;;;;7.27;2.30;;;;;;;;;;5079790;28;20217;-60
2023/01/08 14:42:45;;;;;;;5.20;3.00;;;;;;;;;;5079705;28;20251;-60
2023/01/08 14:45:19;;;;;;;5.03;2.20;;;;;;;;;;5079674;28;20216;-60
2023/01/08 14:47:50;;;;;;;5.10;2.73;;;;;;;;;;5079589;28;20243;-60
2023/01/08 14:50:19;;;;;;;7.43;2.77;;;;;;;;;;5079376;28;20238;-60
2023/01/08 14:52:47;;;;;;;4.30;2.47;;;;;;;;;;5079462;28;20305;-59
2023/01/08 14:55:17;;;;;;;3.63;2.70;;;;;;;;;;5079643;28;20233;-60
2023/01/08 14:57:46;;;;;;;3.70;2.23;;;;;;;;;;5079448;28;20764;-60
2023/01/08 15:00:18;;;;;;;6.73;2.40;;;;;;;;;;5079564;28;20214;-60